Welcome to Northern Hawkes Bay. New Zealand.
PWS Header
      nz Flag



Hit Counter


W3C Valid W3C Valid logo


    Wairoa

Select any of the Stations below to visit their websites.










Historic Data from Weather Underground
Select the location of interest below. Wairoa is the default. Please have patience, this Data is slow to load in.
Northern Hawkes Bay Historical Data
Daily Summary for April 3, 2017 Units:  Metric    English   Both
« Previous Day
Next Day »
Daily Weekly Monthly Yearly Custom
  High: Low: Average:
Temperature: 19.6 °C 15.1 °C 17 °C
Dew Point: 18.3 °C 14.9 °C 16.4 °C
Humidity: 99% 85% 96%
Wind Speed: 20.9km/h 0.0km/h 3.6km/h
Wind Gust: 33.1km/h - -
Wind- - SW
Pressure: 1021.2 hPa 1015.8 hPa -
Precipitation: 11.4 mm    
Historical Graphs
 
 
Tabular Data for April 3, 2017
Time Temperature Dew Point Pressure Wind Wind Speed Wind Gust Humidity Rainfall Rate (Hourly) solar
00:03 19.6 °C 17.0 °C 1016.8 hPa NNW 6.1 km/h 9.7 km/h 85% 0.0 mm 0 W/m2
00:09 19.3 °C 16.7 °C 1016.8 hPa Calm   8.7 km/h 85% 0.0 mm 0 W/m2
00:15 19.3 °C 16.9 °C 1016.8 hPa Calm   6.1 km/h 86% 0.0 mm 0 W/m2
00:21 19.1 °C 16.7 °C 1016.5 hPa Calm   5.0 km/h 86% 0.0 mm 0 W/m2
00:27 19.2 °C 16.8 °C 1016.5 hPa NNW 6.1 km/h 8.7 km/h 86% 0.0 mm 0 W/m2
00:33 19.2 °C 16.8 °C 1016.5 hPa North 5.0 km/h 8.7 km/h 86% 0.0 mm 0 W/m2
00:39 19.5 °C 16.9 °C 1016.5 hPa North 5.0 km/h 9.7 km/h 85% 0.0 mm 0 W/m2
00:45 19.6 °C 17.0 °C 1016.5 hPa North 6.1 km/h 9.7 km/h 85% 0.0 mm 0 W/m2
00:51 19.3 °C 16.7 °C 1016.5 hPa North 6.1 km/h 11.1 km/h 85% 0.0 mm 0 W/m2
00:57 19.2 °C 16.6 °C 1016.5 hPa Calm   11.1 km/h 85% 0.0 mm 0 W/m2
01:03 19.0 °C 16.6 °C 1016.5 hPa Calm   8.7 km/h 86% 0.0 mm 0 W/m2
01:09 18.9 °C 16.7 °C 1016.5 hPa Calm   6.1 km/h 87% 0.0 mm 0 W/m2
01:15 18.8 °C 16.6 °C 1016.5 hPa Calm   1.1 km/h 87% 0.0 mm 0 W/m2
01:21 18.6 °C 16.4 °C 1016.8 hPa Calm     87% 0.0 mm 0 W/m2
01:27 18.4 °C 16.4 °C 1016.5 hPa Calm     88% 0.0 mm 0 W/m2
01:33 18.3 °C 16.3 °C 1016.8 hPa Calm     88% 0.0 mm 0 W/m2
01:39 18.1 °C 16.3 °C 1016.5 hPa Calm     89% 0.0 mm 0 W/m2
01:45 18.0 °C 16.3 °C 1016.5 hPa Calm     90% 0.0 mm 0 W/m2
01:51 17.9 °C 16.2 °C 1016.5 hPa Calm     90% 0.0 mm 0 W/m2
01:57 17.8 °C 16.3 °C 1016.1 hPa Calm     91% 0.0 mm 0 W/m2
02:03 17.7 °C 16.2 °C 1016.1 hPa Calm     91% 0.0 mm 0 W/m2
02:09 17.7 °C 16.2 °C 1016.1 hPa Calm     91% 0.0 mm 0 W/m2
02:15 17.7 °C 16.2 °C 1016.1 hPa Calm     91% 0.0 mm 0 W/m2
02:21 17.6 °C 16.1 °C 1016.1 hPa Calm     91% 0.0 mm 0 W/m2
02:27 17.6 °C 16.1 °C 1015.8 hPa Calm   8.7 km/h 91% 0.0 mm 0 W/m2
02:33 17.6 °C 16.1 °C 1015.8 hPa Calm   8.7 km/h 91% 0.0 mm 0 W/m2
02:39 17.7 °C 16.4 °C 1015.8 hPa Calm   7.2 km/h 92% 0.0 mm 0 W/m2
02:45 17.7 °C 16.4 °C 1015.8 hPa NW 3.5 km/h 6.1 km/h 92% 0.0 mm 0 W/m2
02:51 17.7 °C 16.4 °C 1015.8 hPa Calm   6.1 km/h 92% 0.0 mm 0 W/m2
02:57 17.5 °C 16.0 °C 1015.8 hPa Calm     91% 0.0 mm 0 W/m2
03:03 17.4 °C 15.9 °C 1015.8 hPa Calm     91% 0.0 mm 0 W/m2
03:09 17.2 °C 15.7 °C 1015.8 hPa Calm     91% 0.0 mm 0 W/m2
03:15 17.1 °C 15.6 °C 1015.8 hPa Calm     91% 0.0 mm 0 W/m2
03:21 17.1 °C 15.8 °C 1015.8 hPa Calm     92% 0.0 mm 0 W/m2
03:27 17.2 °C 16.1 °C 1015.8 hPa Calm     93% 0.0 mm 0 W/m2
03:33 17.3 °C 16.2 °C 1016.1 hPa Calm     93% 0.0 mm 0 W/m2
03:39 17.3 °C 16.2 °C 1015.8 hPa Calm     93% 0.0 mm 0 W/m2
03:45 17.3 °C 16.2 °C 1015.8 hPa Calm     93% 0.0 mm 0 W/m2
03:51 17.3 °C 16.2 °C 1016.1 hPa Calm     93% 0.0 mm 0 W/m2
03:57 17.3 °C 16.2 °C 1015.8 hPa Calm     93% 0.0 mm 0 W/m2
04:03 17.3 °C 16.0 °C 1016.1 hPa Calm     92% 0.0 mm 0 W/m2
04:09 17.3 °C 16.0 °C 1015.8 hPa Calm     92% 0.0 mm 0 W/m2
04:15 17.2 °C 15.9 °C 1015.8 hPa Calm     92% 0.0 mm 0 W/m2
04:21 17.2 °C 16.1 °C 1015.8 hPa Calm     93% 0.0 mm 0 W/m2
04:27 17.1 °C 15.9 °C 1015.8 hPa Calm     93% 0.0 mm 0 W/m2
04:33 17.0 °C 15.9 °C 1015.8 hPa Calm     93% 0.0 mm 0 W/m2
04:39 16.9 °C 15.9 °C 1016.1 hPa Calm     94% 0.0 mm 0 W/m2
04:45 16.8 °C 15.8 °C 1016.1 hPa Calm     94% 0.0 mm 0 W/m2
04:51 16.7 °C 15.7 °C 1016.1 hPa Calm     94% 0.0 mm 0 W/m2
04:57 16.8 °C 15.8 °C 1016.1 hPa Calm     94% 0.0 mm 0 W/m2
05:03 16.8 °C 15.8 °C 1016.1 hPa Calm     94% 0.0 mm 0 W/m2
05:09 16.7 °C 15.7 °C 1016.1 hPa Calm     94% 0.0 mm 0 W/m2
05:15 16.8 °C 16.0 °C 1016.1 hPa Calm     95% 0.0 mm 0 W/m2
05:21 16.7 °C 15.9 °C 1016.1 hPa Calm     95% 0.0 mm 0 W/m2
05:27 16.9 °C 16.1 °C 1016.1 hPa Calm     95% 0.0 mm 0 W/m2
05:33 16.8 °C 16.0 °C 1016.1 hPa Calm     95% 0.0 mm 0 W/m2
05:39 16.7 °C 15.9 °C 1016.5 hPa Calm     95% 0.0 mm 0 W/m2
05:45 16.6 °C 15.8 °C 1016.5 hPa Calm   1.1 km/h 95% 0.0 mm 0 W/m2
05:51 16.4 °C 15.6 °C 1016.5 hPa North 1.1 km/h 3.5 km/h 95% 0.0 mm 0 W/m2
05:57 16.3 °C 15.5 °C 1016.5 hPa North 2.6 km/h 5.0 km/h 95% 0.0 mm 0 W/m2
06:03 16.2 °C 15.6 °C 1016.8 hPa Calm   5.0 km/h 96% 0.0 mm 0 W/m2
06:09 16.3 °C 15.7 °C 1016.5 hPa Calm   9.7 km/h 96% 0.0 mm 0 W/m2
06:15 16.9 °C 16.4 °C 1016.8 hPa Calm   9.7 km/h 97% 0.0 mm 0 W/m2
06:21 17.4 °C 16.9 °C 1016.8 hPa Calm     97% 0.0 mm 0 W/m2
06:27 17.7 °C 17.2 °C 1016.8 hPa Calm     97% 0.0 mm 4 W/m2
06:33 17.8 °C 17.3 °C 1016.8 hPa Calm     97% 0.0 mm 8 W/m2
06:39 17.6 °C 16.9 °C 1016.8 hPa Calm     96% 0.0 mm 13 W/m2
06:45 17.6 °C 16.8 °C 1016.8 hPa Calm     95% 0.0 mm 17 W/m2
06:51 17.6 °C 16.8 °C 1017.2 hPa Calm     95% 0.0 mm 17 W/m2
06:57 18.1 °C 17.6 °C 1017.2 hPa Calm   6.1 km/h 97% 0.0 mm 13 W/m2
07:03 18.4 °C 18.1 °C 1017.5 hPa SSW 3.5 km/h 8.7 km/h 98% 0.0 mm 13 W/m2
07:09 18.5 °C 18.2 °C 1017.5 hPa South 9.7 km/h 15.8 km/h 98% 0.0 mm 13 W/m2
07:15 18.3 °C 18.0 °C 1017.5 hPa South 9.7 km/h 17.2 km/h 98% 0.0 mm 12 W/m2
07:21 18.2 °C 18.1 °C 1017.5 hPa South 7.2 km/h 17.2 km/h 99% 0.0 mm 13 W/m2
07:27 18.2 °C 18.1 °C 1017.5 hPa Calm   13.4 km/h 99% 0.0 mm 26 W/m2
07:33 18.2 °C 18.1 °C 1017.5 hPa Calm   11.1 km/h 99% 0.0 mm 17 W/m2
07:39 18.2 °C 18.1 °C 1017.5 hPa Calm   9.7 km/h 99% 0.0 mm 24 W/m2
07:45 18.2 °C 18.1 °C 1017.5 hPa South 3.5 km/h 8.7 km/h 99% 0.0 mm 35 W/m2
07:51 18.2 °C 18.1 °C 1017.8 hPa Calm   11.1 km/h 99% 0.0 mm 21 W/m2
07:57 18.2 °C 18.1 °C 1017.8 hPa South 3.5 km/h 11.1 km/h 99% 0.0 mm 26 W/m2
08:03 18.2 °C 18.1 °C 1017.8 hPa South 5.0 km/h 11.1 km/h 99% 0.0 mm 29 W/m2
08:09 18.2 °C 18.1 °C 1018.2 hPa South 6.1 km/h 11.1 km/h 99% 0.0 mm 25 W/m2
08:15 18.3 °C 18.2 °C 1018.2 hPa Calm   11.1 km/h 99% 0.0 mm 29 W/m2
08:21 18.3 °C 18.2 °C 1018.2 hPa SSW 6.1 km/h 11.1 km/h 99% 0.0 mm 42 W/m2
08:27 18.4 °C 18.3 °C 1017.8 hPa Calm   9.7 km/h 99% 0.0 mm 61 W/m2
08:33 18.4 °C 18.1 °C 1018.2 hPa South 3.5 km/h 9.7 km/h 98% 0.0 mm 77 W/m2
08:39 18.5 °C 18.2 °C 1018.2 hPa SSW 1.1 km/h 9.7 km/h 98% 0.0 mm 70 W/m2
08:45 18.5 °C 18.2 °C 1018.2 hPa Calm   9.7 km/h 98% 0.0 mm 63 W/m2
08:53 18.7 °C 18.2 °C 1018.2 hPa South 2.6 km/h 9.7 km/h 97% 0.0 mm 94 W/m2
08:59 18.7 °C 18.2 °C 1018.2 hPa Calm   9.7 km/h 97% 0.0 mm 84 W/m2
09:05 18.7 °C 18.2 °C 1018.2 hPa Calm   7.2 km/h 97% 0.0 mm 95 W/m2
09:11 18.8 °C 18.3 °C 1018.2 hPa Calm   5.0 km/h 97% 0.0 mm 104 W/m2
09:17 18.8 °C 18.3 °C 1018.2 hPa Calm   5.0 km/h 97% 0.0 mm 97 W/m2
09:23 18.8 °C 18.3 °C 1018.2 hPa Calm   6.1 km/h 97% 0.3 mm 99 W/m2
09:29 18.7 °C 18.2 °C 1018.2 hPa Calm   7.2 km/h 97% 0.3 mm 103 W/m2
09:35 18.7 °C 18.2 °C 1018.2 hPa South 5.0 km/h 7.2 km/h 97% 0.5 mm 94 W/m2
09:41 18.6 °C 18.3 °C 1018.2 hPa South 8.7 km/h 13.4 km/h 98% 0.5 mm 110 W/m2
09:47 18.5 °C 18.2 °C 1018.2 hPa SSW 3.5 km/h 13.4 km/h 98% 1.0 mm 101 W/m2
09:53 18.4 °C 18.1 °C 1018.5 hPa SSW 2.6 km/h 9.7 km/h 98% 1.0 mm 77 W/m2
09:59 18.3 °C 18.0 °C 1018.5 hPa South 5.0 km/h 11.1 km/h 98% 1.0 mm 87 W/m2
10:05 18.3 °C 18.2 °C 1018.5 hPa South 3.5 km/h 11.1 km/h 99% 1.0 mm 106 W/m2
10:11 18.3 °C 18.2 °C 1018.5 hPa South 5.0 km/h 11.1 km/h 99% 1.3 mm 85 W/m2
10:17 18.3 °C 18.2 °C 1018.5 hPa SSW 7.2 km/h 11.1 km/h 99% 1.3 mm 110 W/m2
10:23 18.3 °C 18.2 °C 1018.2 hPa Calm   12.2 km/h 99% 1.0 mm 120 W/m2
10:29 18.4 °C 18.3 °C 1018.5 hPa South 6.1 km/h 12.2 km/h 99% 1.0 mm 122 W/m2
10:35 18.4 °C 18.3 °C 1018.2 hPa South 8.7 km/h 12.2 km/h 99% 0.5 mm 123 W/m2
10:41 18.4 °C 18.3 °C 1018.5 hPa Calm   12.2 km/h 99% 0.5 mm 88 W/m2
10:47 18.3 °C 18.0 °C 1018.5 hPa South 9.7 km/h 18.3 km/h 98% 0.3 mm 58 W/m2
10:53 18.1 °C 17.8 °C 1018.2 hPa SSW 7.2 km/h 18.3 km/h 98% 0.3 mm 87 W/m2
10:59 18.1 °C 17.8 °C 1018.5 hPa SSW 8.7 km/h 14.8 km/h 98% 0.3 mm 87 W/m2
11:05 18.1 °C 17.8 °C 1018.2 hPa SSW 8.7 km/h 13.4 km/h 98% 0.3 mm 87 W/m2
11:11 18.0 °C 17.7 °C 1018.5 hPa South 6.1 km/h 15.8 km/h 98% 0.0 mm 70 W/m2
11:17 17.9 °C 17.4 °C 1018.5 hPa SSW 7.2 km/h 15.8 km/h 97% 0.0 mm 84 W/m2
11:23 17.9 °C 17.4 °C 1018.5 hPa South 12.2 km/h 18.3 km/h 97% 0.0 mm 91 W/m2
11:29 17.9 °C 17.4 °C 1018.5 hPa South 7.2 km/h 18.3 km/h 97% 0.0 mm 78 W/m2
11:35 17.7 °C 17.2 °C 1018.5 hPa SSW 14.8 km/h 19.5 km/h 97% 0.0 mm 99 W/m2
11:41 17.6 °C 17.1 °C 1018.8 hPa SSW 9.7 km/h 19.5 km/h 97% 0.0 mm 100 W/m2
11:47 17.6 °C 17.1 °C 1018.5 hPa SSW 13.4 km/h 19.5 km/h 97% 0.0 mm 98 W/m2
11:53 17.5 °C 17.1 °C 1018.5 hPa SSW 8.7 km/h 19.5 km/h 97% 0.0 mm 95 W/m2
11:59 17.4 °C 16.9 °C 1018.8 hPa South 9.7 km/h 19.5 km/h 97% 0.0 mm 105 W/m2
12:05 17.4 °C 16.9 °C 1018.8 hPa SSW 8.7 km/h 19.5 km/h 97% 0.0 mm 103 W/m2
12:11 17.4 °C 16.9 °C 1018.8 hPa SSW 9.7 km/h 19.5 km/h 97% 0.3 mm 115 W/m2
12:17 17.3 °C 16.8 °C 1018.8 hPa SSW 8.7 km/h 20.9 km/h 97% 0.3 mm 117 W/m2
12:23 17.4 °C 16.9 °C 1018.8 hPa SSW 9.7 km/h 20.9 km/h 97% 0.3 mm 110 W/m2
12:29 17.3 °C 16.8 °C 1018.8 hPa SSW 15.8 km/h 20.9 km/h 97% 0.3 mm 97 W/m2
12:35 17.2 °C 16.7 °C 1018.8 hPa SSW 14.8 km/h 20.9 km/h 97% 0.3 mm 87 W/m2
12:41 17.1 °C 16.6 °C 1019.2 hPa SSW 11.1 km/h 24.5 km/h 97% 0.3 mm 122 W/m2
12:47 17.1 °C 16.6 °C 1018.8 hPa SSW 18.3 km/h 25.6 km/h 97% 0.3 mm 92 W/m2
12:59 16.9 °C 16.6 °C 1018.8 hPa SSW 14.8 km/h 25.6 km/h 98% 0.3 mm 111 W/m2
13:05 16.8 °C 16.5 °C 1018.8 hPa SSW 14.8 km/h 27.0 km/h 98% 0.3 mm 120 W/m2
13:11 16.9 °C 16.6 °C 1018.8 hPa SW 14.8 km/h 27.0 km/h 98% 0.0 mm 109 W/m2
13:17 16.8 °C 16.5 °C 1018.8 hPa SW 11.1 km/h 25.6 km/h 98% 0.3 mm 124 W/m2
13:23 16.8 °C 16.5 °C 1018.8 hPa SSW 13.4 km/h 25.6 km/h 98% 0.3 mm 97 W/m2
13:41 16.7 °C 16.4 °C 1018.8 hPa SSW 11.1 km/h 27.0 km/h 98% 0.3 mm 99 W/m2
13:47 16.8 °C 16.5 °C 1018.8 hPa SSW 15.8 km/h 27.0 km/h 98% 0.3 mm 93 W/m2
13:53 16.7 °C 16.4 °C 1018.8 hPa SSW 18.3 km/h 29.4 km/h 98% 0.3 mm 94 W/m2
13:59 16.6 °C 16.3 °C 1018.8 hPa SSW 18.3 km/h 29.4 km/h 98% 0.3 mm 102 W/m2
14:05 16.6 °C 16.3 °C 1018.8 hPa SW 17.2 km/h 30.6 km/h 98% 0.3 mm 104 W/m2
14:11 16.6 °C 16.3 °C 1018.8 hPa SSW 13.4 km/h 30.6 km/h 98% 0.3 mm 124 W/m2
14:15 16.6 °C 16.3 °C 1018.8 hPa SSW 17.2 km/h 27.0 km/h 98% 0.0 mm 101 W/m2
14:21 16.6 °C 16.3 °C 1018.8 hPa SSW 13.4 km/h 27.0 km/h 98% 0.0 mm 128 W/m2
14:27 16.7 °C 16.4 °C 1018.8 hPa SW 13.4 km/h 27.0 km/h 98% 0.0 mm 103 W/m2
14:33 16.7 °C 16.4 °C 1019.2 hPa SW 9.7 km/h 27.0 km/h 98% 0.0 mm 88 W/m2
14:39 16.6 °C 16.3 °C 1019.2 hPa WSW 14.8 km/h 24.5 km/h 98% 0.0 mm 77 W/m2
14:45 16.5 °C 16.2 °C 1019.2 hPa SW 14.8 km/h 24.5 km/h 98% 0.0 mm 110 W/m2
14:51 16.5 °C 16.2 °C 1018.8 hPa SW 8.7 km/h 20.9 km/h 98% 0.0 mm 71 W/m2
15:03 16.4 °C 16.1 °C 1019.2 hPa SW 9.7 km/h 20.9 km/h 98% 0.0 mm 38 W/m2
15:09 16.4 °C 16.1 °C 1019.2 hPa WSW 13.4 km/h 18.3 km/h 98% 0.3 mm 55 W/m2
15:15 16.4 °C 16.1 °C 1019.2 hPa SW 17.2 km/h 20.9 km/h 98% 0.3 mm 80 W/m2
15:21 16.4 °C 16.1 °C 1019.2 hPa SW 1.1 km/h 20.9 km/h 98% 0.3 mm 52 W/m2
15:27 16.3 °C 16.0 °C 1019.2 hPa SW 3.5 km/h 18.3 km/h 98% 0.3 mm 69 W/m2
15:33 16.3 °C 16.0 °C 1019.2 hPa WSW 2.6 km/h 14.8 km/h 98% 0.3 mm 43 W/m2
15:39 16.3 °C 16.0 °C 1019.2 hPa WSW 5.0 km/h 12.2 km/h 98% 0.3 mm 48 W/m2
15:45 16.2 °C 15.9 °C 1019.2 hPa WSW 8.7 km/h 12.2 km/h 98% 0.3 mm 46 W/m2
15:51 16.2 °C 15.9 °C 1019.2 hPa WSW 6.1 km/h 14.8 km/h 98% 0.3 mm 46 W/m2
15:57 16.2 °C 15.9 °C 1018.8 hPa Calm   14.8 km/h 98% 0.3 mm 43 W/m2
16:03 16.2 °C 15.9 °C 1018.8 hPa Calm   13.4 km/h 98% 0.3 mm 38 W/m2
16:09 16.2 °C 15.9 °C 1019.2 hPa Calm   9.7 km/h 98% 0.0 mm 46 W/m2
16:15 16.2 °C 15.9 °C 1019.2 hPa Calm   5.0 km/h 98% 0.0 mm 28 W/m2
16:21 16.2 °C 15.9 °C 1019.2 hPa Calm   5.0 km/h 98% 0.0 mm 16 W/m2
16:27 16.1 °C 15.8 °C 1019.2 hPa Calm   1.1 km/h 98% 0.0 mm 24 W/m2
16:33 16.0 °C 15.7 °C 1019.2 hPa Calm     98% 0.0 mm 21 W/m2
16:39 16.0 °C 15.7 °C 1019.2 hPa Calm     98% 0.0 mm 16 W/m2
16:45 16.0 °C 15.7 °C 1019.5 hPa NW 5.0 km/h 7.2 km/h 98% 0.0 mm 18 W/m2
16:51 16.0 °C 15.7 °C 1019.2 hPa WSW 1.1 km/h 11.1 km/h 98% 0.0 mm 18 W/m2
16:57 16.0 °C 15.7 °C 1019.2 hPa Calm   11.1 km/h 98% 0.0 mm 15 W/m2
17:03 16.0 °C 15.7 °C 1019.5 hPa Calm   7.2 km/h 98% 0.0 mm 9 W/m2
17:09 16.0 °C 15.7 °C 1019.5 hPa Calm     98% 0.0 mm 13 W/m2
17:15 15.9 °C 15.8 °C 1019.2 hPa Calm     99% 0.0 mm 14 W/m2
17:21 15.9 °C 15.8 °C 1019.2 hPa Calm     99% 0.0 mm 11 W/m2
17:27 15.9 °C 15.8 °C 1019.5 hPa NW 5.0 km/h 7.2 km/h 99% 0.0 mm 6 W/m2
17:33 15.9 °C 15.8 °C 1019.5 hPa Calm   7.2 km/h 99% 0.0 mm 4 W/m2
17:39 15.9 °C 15.8 °C 1019.5 hPa Calm   12.2 km/h 99% 0.0 mm 1 W/m2
17:45 15.9 °C 15.8 °C 1019.9 hPa Calm   11.1 km/h 99% 0.0 mm 0 W/m2
17:51 15.8 °C 15.7 °C 1019.9 hPa Calm   11.1 km/h 99% 0.3 mm 0 W/m2
17:57 15.8 °C 15.7 °C 1019.9 hPa Calm   8.7 km/h 99% 0.3 mm 0 W/m2
18:03 15.8 °C 15.7 °C 1019.9 hPa Calm   8.7 km/h 99% 0.3 mm 0 W/m2
18:09 15.8 °C 15.7 °C 1019.9 hPa West 2.6 km/h 7.2 km/h 99% 0.3 mm 0 W/m2
18:15 15.9 °C 15.8 °C 1019.9 hPa Calm   8.7 km/h 99% 0.3 mm 0 W/m2
18:21 15.9 °C 15.8 °C 1019.9 hPa Calm   8.7 km/h 99% 0.3 mm 0 W/m2
18:27 15.8 °C 15.7 °C 1019.9 hPa Calm   8.7 km/h 99% 0.3 mm 0 W/m2
18:33 15.8 °C 15.7 °C 1020.2 hPa WSW 3.5 km/h 13.4 km/h 99% 0.3 mm 0 W/m2
18:39 15.9 °C 15.8 °C 1020.2 hPa Calm   13.4 km/h 99% 0.3 mm 0 W/m2
18:45 15.9 °C 15.8 °C 1020.2 hPa Calm   7.2 km/h 99% 0.3 mm 0 W/m2
18:51 15.9 °C 15.8 °C 1020.2 hPa WSW 3.5 km/h 13.4 km/h 99% 0.0 mm 0 W/m2
18:57 16.0 °C 15.7 °C 1020.2 hPa Calm   13.4 km/h 98% 0.0 mm 0 W/m2
19:03 16.0 °C 15.7 °C 1020.5 hPa Calm   9.7 km/h 98% 0.0 mm 0 W/m2
19:09 16.0 °C 15.7 °C 1020.5 hPa Calm   2.6 km/h 98% 0.0 mm 0 W/m2
19:15 16.0 °C 15.7 °C 1020.5 hPa Calm     98% 0.0 mm 0 W/m2
19:21 16.0 °C 15.7 °C 1020.9 hPa Calm     98% 0.0 mm 0 W/m2
19:27 15.9 °C 15.8 °C 1020.5 hPa Calm     99% 0.3 mm 0 W/m2
19:33 15.9 °C 15.8 °C 1020.5 hPa Calm     99% 0.3 mm 0 W/m2
19:39 15.9 °C 15.8 °C 1020.5 hPa Calm     99% 0.3 mm 0 W/m2
19:45 15.9 °C 15.8 °C 1020.2 hPa Calm     99% 0.3 mm 0 W/m2
19:51 15.8 °C 15.7 °C 1020.5 hPa Calm     99% 0.3 mm 0 W/m2
19:57 15.8 °C 15.7 °C 1020.5 hPa Calm     99% 0.3 mm 0 W/m2
20:03 15.8 °C 15.7 °C 1020.5 hPa Calm     99% 0.3 mm 0 W/m2
20:09 15.8 °C 15.7 °C 1020.5 hPa Calm     99% 0.5 mm 0 W/m2
20:15 15.8 °C 15.7 °C 1020.5 hPa Calm     99% 0.5 mm 0 W/m2
20:21 15.8 °C 15.7 °C 1020.9 hPa Calm     99% 0.5 mm 0 W/m2
20:27 15.8 °C 15.7 °C 1020.5 hPa Calm   1.1 km/h 99% 0.3 mm 0 W/m2
20:33 15.7 °C 15.6 °C 1020.5 hPa Calm   1.1 km/h 99% 0.3 mm 0 W/m2
20:39 15.7 °C 15.6 °C 1020.5 hPa Calm     99% 0.3 mm 0 W/m2
20:45 15.7 °C 15.6 °C 1020.5 hPa Calm     99% 0.5 mm 0 W/m2
20:51 15.7 °C 15.6 °C 1020.5 hPa Calm     99% 0.5 mm 0 W/m2
20:57 15.7 °C 15.6 °C 1020.9 hPa Calm     99% 0.5 mm 0 W/m2
21:03 15.7 °C 15.6 °C 1020.9 hPa Calm     99% 0.5 mm 0 W/m2
21:09 15.7 °C 15.6 °C 1020.9 hPa Calm     99% 0.3 mm 0 W/m2
21:15 15.7 °C 15.6 °C 1020.9 hPa Calm     99% 0.3 mm 0 W/m2
21:21 15.6 °C 15.4 °C 1020.9 hPa Calm     99% 0.3 mm 0 W/m2
21:27 15.6 °C 15.4 °C 1020.9 hPa Calm     99% 0.5 mm 0 W/m2
21:33 15.6 °C 15.4 °C 1020.9 hPa Calm     99% 1.0 mm 0 W/m2
21:39 15.6 °C 15.4 °C 1020.9 hPa Calm   1.1 km/h 99% 1.0 mm 0 W/m2
21:45 15.6 °C 15.4 °C 1020.9 hPa Calm   1.1 km/h 99% 1.0 mm 0 W/m2
21:51 15.6 °C 15.4 °C 1020.9 hPa Calm     99% 1.3 mm 0 W/m2
21:57 15.6 °C 15.4 °C 1020.9 hPa Calm     99% 1.3 mm 0 W/m2
22:03 15.6 °C 15.4 °C 1020.9 hPa WNW 1.1 km/h 14.8 km/h 99% 1.3 mm 0 W/m2
22:09 15.6 °C 15.4 °C 1020.9 hPa West 3.5 km/h 17.2 km/h 99% 1.5 mm 0 W/m2
22:15 15.6 °C 15.4 °C 1020.9 hPa West 5.0 km/h 17.2 km/h 99% 1.5 mm 0 W/m2
22:21 15.5 °C 15.3 °C 1020.9 hPa WSW 5.0 km/h 11.1 km/h 99% 1.5 mm 0 W/m2
22:27 15.4 °C 15.3 °C 1020.9 hPa Calm   15.8 km/h 99% 1.5 mm 0 W/m2
22:33 15.4 °C 15.3 °C 1020.9 hPa WSW 2.6 km/h 14.8 km/h 99% 1.3 mm 0 W/m2
22:39 15.4 °C 15.3 °C 1020.9 hPa West 11.1 km/h 23.3 km/h 99% 1.5 mm 0 W/m2
22:45 15.4 °C 15.3 °C 1020.9 hPa West 6.1 km/h 23.3 km/h 99% 1.3 mm 0 W/m2
22:51 15.3 °C 15.2 °C 1020.9 hPa West 6.1 km/h 21.9 km/h 99% 1.3 mm 0 W/m2
22:57 15.3 °C 15.2 °C 1020.9 hPa WSW 9.7 km/h 19.5 km/h 99% 1.3 mm 0 W/m2
23:03 15.2 °C 15.1 °C 1021.2 hPa Calm   21.9 km/h 99% 1.8 mm 0 W/m2
23:09 15.2 °C 15.1 °C 1021.2 hPa West 2.6 km/h 21.9 km/h 99% 2.0 mm 0 W/m2
23:15 15.2 °C 15.1 °C 1021.2 hPa West 2.6 km/h 11.1 km/h 99% 2.8 mm 0 W/m2
23:21 15.1 °C 14.9 °C 1021.2 hPa West 8.7 km/h 14.8 km/h 99% 3.0 mm 0 W/m2
23:27 15.1 °C 14.9 °C 1021.2 hPa West 7.2 km/h 27.0 km/h 99% 3.6 mm 0 W/m2
23:33 15.1 °C 14.9 °C 1020.9 hPa West 18.3 km/h 27.0 km/h 99% 4.3 mm 0 W/m2
23:39 15.2 °C 15.1 °C 1021.2 hPa WNW 20.9 km/h 33.1 km/h 99% 4.6 mm 0 W/m2
23:45 15.1 °C 14.9 °C 1020.9 hPa West 9.7 km/h 33.1 km/h 99% 4.8 mm 0 W/m2
23:51 15.2 °C 15.1 °C 1020.9 hPa West 6.1 km/h 23.3 km/h 99% 5.1 mm 0 W/m2
23:57 15.3 °C 15.2 °C 1020.9 hPa West 6.1 km/h 25.6 km/h 99% 5.6 mm 0 W/m2
Northern Hawkes Bay. New Zealand Historic Data
Compliments of Weather Underground - 2 mb